sensor_id;sensor_type;location;lat;lon;timestamp;pressure;altitude;pressure_sealevel;temperature;humidity
65800;BME280;52544;48.116;11.660;2022-10-16T00:00:34;95695.50;;;13.04;100.00
65800;BME280;52544;48.116;11.660;2022-10-16T00:03:00;95693.56;;;12.96;100.00
65800;BME280;52544;48.116;11.660;2022-10-16T00:05:26;95679.59;;;12.94;100.00
65800;BME280;52544;48.116;11.660;2022-10-16T00:07:51;95689.53;;;12.92;100.00
65800;BME280;52544;48.116;11.660;2022-10-16T00:10:16;95687.00;;;12.90;100.00
65800;BME280;52544;48.116;11.660;2022-10-16T00:12:42;95676.38;;;12.90;100.00
65800;BME280;52544;48.116;11.660;2022-10-16T00:15:07;95692.31;;;12.90;100.00
65800;BME280;52544;48.116;11.660;2022-10-16T00:17:33;95694.00;;;12.91;100.00
65800;BME280;52544;48.116;11.660;2022-10-16T00:19:58;95696.53;;;12.83;100.00
65800;BME280;52544;48.116;11.660;2022-10-16T00:22:24;95690.06;;;12.86;100.00
65800;BME280;52544;48.116;11.660;2022-10-16T00:24:50;95695.97;;;12.80;100.00
65800;BME280;52544;48.116;11.660;2022-10-16T00:27:15;95691.78;;;12.67;100.00
65800;BME280;52544;48.116;11.660;2022-10-16T00:29:41;95691.78;;;12.67;100.00
65800;BME280;52544;48.116;11.660;2022-10-16T00:32:07;95684.94;;;12.74;100.00
65800;BME280;52544;48.116;11.660;2022-10-16T00:34:32;95689.00;;;12.79;100.00
65800;BME280;52544;48.116;11.660;2022-10-16T00:36:57;95690.66;;;12.70;100.00
65800;BME280;52544;48.116;11.660;2022-10-16T00:39:23;95699.63;;;12.79;100.00
65800;BME280;52544;48.116;11.660;2022-10-16T00:41:49;95696.53;;;12.73;100.00
65800;BME280;52544;48.116;11.660;2022-10-16T00:47:37;95688.72;;;12.72;100.00
65800;BME280;52544;48.116;11.660;2022-10-16T00:50:08;95688.13;;;12.78;100.00
65800;BME280;52544;48.116;11.660;2022-10-16T00:52:34;95688.13;;;12.78;100.00
65800;BME280;52544;48.116;11.660;2022-10-16T00:55:01;95688.13;;;12.78;100.00
65800;BME280;52544;48.116;11.660;2022-10-16T00:57:28;95683.38;;;12.82;100.00
65800;BME280;52544;48.116;11.660;2022-10-16T00:59:53;95681.41;;;12.74;100.00
65800;BME280;52544;48.116;11.660;2022-10-16T01:02:19;95687.59;;;12.74;100.00
65800;BME280;52544;48.116;11.660;2022-10-16T01:04:48;95686.19;;;12.80;100.00
65800;BME280;52544;48.116;11.660;2022-10-16T01:07:24;95680.88;;;12.80;100.00
65800;BME280;52544;48.116;11.660;2022-10-16T01:15:30;95697.22;;;12.75;100.00
65800;BME280;52544;48.116;11.660;2022-10-16T01:18:09;95700.72;;;12.76;100.00
65800;BME280;52544;48.116;11.660;2022-10-16T01:20:48;95707.97;;;12.74;100.00
65800;BME280;52544;48.116;11.660;2022-10-16T01:23:21;95704.78;;;12.70;100.00
65800;BME280;52544;48.116;11.660;2022-10-16T01:25:58;95716.53;;;12.58;100.00
65800;BME280;52544;48.116;11.660;2022-10-16T01:29:09;95721.97;;;12.47;100.00
65800;BME280;52544;48.116;11.660;2022-10-16T01:31:40;95724.88;;;12.44;100.00
65800;BME280;52544;48.116;11.660;2022-10-16T01:34:16;95706.31;;;12.44;100.00
65800;BME280;52544;48.116;11.660;2022-10-16T01:36:52;95706.19;;;12.45;100.00
65800;BME280;52544;48.116;11.660;2022-10-16T01:39:22;95707.72;;;12.48;100.00
65800;BME280;52544;48.116;11.660;2022-10-16T01:41:59;95707.72;;;12.38;100.00
65800;BME280;52544;48.116;11.660;2022-10-16T01:44:29;95705.34;;;12.35;100.00
65800;BME280;52544;48.116;11.660;2022-10-16T01:46:56;95704.91;;;12.40;100.00
65800;BME280;52544;48.116;11.660;2022-10-16T01:49:25;95706.31;;;12.44;100.00
65800;BME280;52544;48.116;11.660;2022-10-16T01:51:54;95705.91;;;12.39;100.00
65800;BME280;52544;48.116;11.660;2022-10-16T01:54:23;95713.84;;;12.39;100.00
65800;BME280;52544;48.116;11.660;2022-10-16T01:56:51;95716.38;;;12.31;100.00
65800;BME280;52544;48.116;11.660;2022-10-16T01:59:19;95707.97;;;12.25;100.00
65800;BME280;52544;48.116;11.660;2022-10-16T02:01:47;95704.66;;;12.23;100.00
65800;BME280;52544;48.116;11.660;2022-10-16T02:04:20;95707.97;;;12.16;100.00
65800;BME280;52544;48.116;11.660;2022-10-16T02:06:48;95697.63;;;12.22;100.00
65800;BME280;52544;48.116;11.660;2022-10-16T02:09:14;95698.09;;;12.28;100.00
65800;BME280;52544;48.116;11.660;2022-10-16T02:11:42;95696.81;;;12.32;100.00
65800;BME280;52544;48.116;11.660;2022-10-16T02:14:08;95695.69;;;12.34;100.00
65800;BME280;52544;48.116;11.660;2022-10-16T02:16:39;95697.94;;;12.39;100.00
65800;BME280;52544;48.116;11.660;2022-10-16T02:19:06;95691.63;;;12.40;100.00
65800;BME280;52544;48.116;11.660;2022-10-16T02:21:56;95688.56;;;12.35;100.00
65800;BME280;52544;48.116;11.660;2022-10-16T02:27:10;95694.19;;;12.41;100.00
65800;BME280;52544;48.116;11.660;2022-10-16T02:29:40;95691.38;;;12.43;100.00
65800;BME280;52544;48.116;11.660;2022-10-16T02:32:10;95696.53;;;12.44;100.00
65800;BME280;52544;48.116;11.660;2022-10-16T02:34:39;95697.41;;;12.45;100.00
65800;BME280;52544;48.116;11.660;2022-10-16T02:37:06;95702.69;;;12.45;100.00
65800;BME280;52544;48.116;11.660;2022-10-16T02:39:32;95700.88;;;12.45;100.00
65800;BME280;52544;48.116;11.660;2022-10-16T02:41:58;95697.41;;;12.45;100.00
65800;BME280;52544;48.116;11.660;2022-10-16T02:44:24;95700.72;;;12.47;100.00
65800;BME280;52544;48.116;11.660;2022-10-16T02:46:49;95702.41;;;12.48;100.00
65800;BME280;52544;48.116;11.660;2022-10-16T02:49:15;95699.19;;;12.44;100.00
65800;BME280;52544;48.116;11.660;2022-10-16T02:51:40;95703.38;;;12.47;100.00
65800;BME280;52544;48.116;11.660;2022-10-16T02:54:05;95716.81;;;12.45;100.00
65800;BME280;52544;48.116;11.660;2022-10-16T02:56:31;95714.72;;;12.49;100.00
65800;BME280;52544;48.116;11.660;2022-10-16T02:58:56;95708.69;;;12.47;100.00
65800;BME280;52544;48.116;11.660;2022-10-16T03:01:22;95711.63;;;12.44;100.00
65800;BME280;52544;48.116;11.660;2022-10-16T03:03:48;95721.69;;;12.40;100.00
65800;BME280;52544;48.116;11.660;2022-10-16T03:06:13;95721.13;;;12.37;100.00
65800;BME280;52544;48.116;11.660;2022-10-16T03:08:38;95716.78;;;12.36;100.00
65800;BME280;52544;48.116;11.660;2022-10-16T03:11:04;95713.84;;;12.39;100.00
65800;BME280;52544;48.116;11.660;2022-10-16T03:13:30;95715.53;;;12.40;100.00
65800;BME280;52544;48.116;11.660;2022-10-16T03:15:55;95708.81;;;12.36;100.00
65800;BME280;52544;48.116;11.660;2022-10-16T03:18:20;95709.13;;;12.33;100.00
65800;BME280;52544;48.116;11.660;2022-10-16T03:20:46;95719.16;;;12.29;100.00
65800;BME280;52544;48.116;11.660;2022-10-16T03:23:11;95718.03;;;12.22;100.00
65800;BME280;52544;48.116;11.660;2022-10-16T03:25:37;95719.69;;;12.23;100.00
65800;BME280;52544;48.116;11.660;2022-10-16T03:28:03;95714.13;;;12.16;100.00
65800;BME280;52544;48.116;11.660;2022-10-16T03:30:28;95710.75;;;12.14;100.00
65800;BME280;52544;48.116;11.660;2022-10-16T03:32:54;95716.91;;;12.15;100.00
65800;BME280;52544;48.116;11.660;2022-10-16T03:35:23;95725.97;;;12.12;100.00
65800;BME280;52544;48.116;11.660;2022-10-16T03:37:48;95724.03;;;12.14;100.00
65800;BME280;52544;48.116;11.660;2022-10-16T03:40:14;95724.84;;;12.15;100.00
65800;BME280;52544;48.116;11.660;2022-10-16T03:42:42;95726.13;;;12.20;100.00
65800;BME280;52544;48.116;11.660;2022-10-16T03:45:08;95717.03;;;12.13;100.00
65800;BME280;52544;48.116;11.660;2022-10-16T03:47:33;95726.41;;;12.17;100.00
65800;BME280;52544;48.116;11.660;2022-10-16T03:49:59;95726.97;;;12.21;100.00
65800;BME280;52544;48.116;11.660;2022-10-16T03:52:25;95740.94;;;12.23;100.00
65800;BME280;52544;48.116;11.660;2022-10-16T03:54:50;95741.66;;;12.25;100.00
65800;BME280;52544;48.116;11.660;2022-10-16T03:57:16;95733.84;;;12.23;100.00
65800;BME280;52544;48.116;11.660;2022-10-16T03:59:42;95735.50;;;12.24;100.00
65800;BME280;52544;48.116;11.660;2022-10-16T04:02:07;95735.91;;;12.30;100.00
65800;BME280;52544;48.116;11.660;2022-10-16T04:04:32;95722.50;;;12.31;100.00
65800;BME280;52544;48.116;11.660;2022-10-16T04:06:58;95719.00;;;12.31;100.00
65800;BME280;52544;48.116;11.660;2022-10-16T04:09:23;95734.94;;;12.31;100.00
65800;BME280;52544;48.116;11.660;2022-10-16T04:11:48;95723.50;;;12.30;100.00
65800;BME280;52544;48.116;11.660;2022-10-16T04:14:14;95726.41;;;12.27;100.00
65800;BME280;52544;48.116;11.660;2022-10-16T04:16:39;95722.50;;;12.31;100.00
65800;BME280;52544;48.116;11.660;2022-10-16T04:19:04;95721.41;;;12.34;100.00
65800;BME280;52544;48.116;11.660;2022-10-16T04:21:30;95726.16;;;12.30;100.00
65800;BME280;52544;48.116;11.660;2022-10-16T04:23:55;95726.72;;;12.34;100.00
65800;BME280;52544;48.116;11.660;2022-10-16T04:26:20;95718.03;;;12.32;100.00
65800;BME280;52544;48.116;11.660;2022-10-16T04:28:46;95723.34;;;12.32;100.00
65800;BME280;52544;48.116;11.660;2022-10-16T04:31:11;95732.59;;;12.28;100.00
65800;BME280;52544;48.116;11.660;2022-10-16T04:33:37;95724.31;;;12.31;100.00
65800;BME280;52544;48.116;11.660;2022-10-16T04:36:03;95729.50;;;12.32;100.00
65800;BME280;52544;48.116;11.660;2022-10-16T04:38:29;95730.34;;;12.33;100.00
65800;BME280;52544;48.116;11.660;2022-10-16T04:40:54;95736.59;;;12.32;100.00
65800;BME280;52544;48.116;11.660;2022-10-16T04:43:21;95741.22;;;12.30;100.00
65800;BME280;52544;48.116;11.660;2022-10-16T04:45:46;95724.22;;;12.32;100.00
65800;BME280;52544;48.116;11.660;2022-10-16T04:48:12;95727.81;;;12.31;100.00
65800;BME280;52544;48.116;11.660;2022-10-16T04:50:37;95731.03;;;12.35;100.00
65800;BME280;52544;48.116;11.660;2022-10-16T04:53:02;95730.34;;;12.33;100.00
65800;BME280;52544;48.116;11.660;2022-10-16T04:55:28;95739.56;;;12.29;100.00
65800;BME280;52544;48.116;11.660;2022-10-16T04:57:53;95740.13;;;12.32;100.00
65800;BME280;52544;48.116;11.660;2022-10-16T05:00:19;95723.06;;;12.35;100.00
65800;BME280;52544;48.116;11.660;2022-10-16T05:02:44;95715.81;;;12.37;100.00
65800;BME280;52544;48.116;11.660;2022-10-16T05:05:10;95726.28;;;12.38;100.00
65800;BME280;52544;48.116;11.660;2022-10-16T05:07:35;95719.16;;;12.39;100.00
65800;BME280;52544;48.116;11.660;2022-10-16T05:10:00;95721.81;;;12.39;100.00
65800;BME280;52544;48.116;11.660;2022-10-16T05:12:26;95733.16;;;12.41;100.00
65800;BME280;52544;48.116;11.660;2022-10-16T05:14:51;95738.31;;;12.42;100.00
65800;BME280;52544;48.116;11.660;2022-10-16T05:17:16;95731.19;;;12.43;100.00
65800;BME280;52544;48.116;11.660;2022-10-16T05:19:42;95724.06;;;12.43;100.00
65800;BME280;52544;48.116;11.660;2022-10-16T05:22:07;95722.81;;;12.47;100.00
65800;BME280;52544;48.116;11.660;2022-10-16T05:24:32;95723.63;;;12.48;100.00
65800;BME280;52544;48.116;11.660;2022-10-16T05:26:58;95719.88;;;12.50;100.00
65800;BME280;52544;48.116;11.660;2022-10-16T05:29:23;95721.44;;;12.53;100.00
65800;BME280;52544;48.116;11.660;2022-10-16T05:31:52;95735.38;;;12.55;100.00
65800;BME280;52544;48.116;11.660;2022-10-16T05:34:19;95730.91;;;12.56;100.00
65800;BME280;52544;48.116;11.660;2022-10-16T05:36:44;95737.06;;;12.56;100.00
65800;BME280;52544;48.116;11.660;2022-10-16T05:39:10;95744.03;;;12.57;100.00
65800;BME280;52544;48.116;11.660;2022-10-16T05:41:36;95739.69;;;12.56;100.00
65800;BME280;52544;48.116;11.660;2022-10-16T05:44:04;95738.59;;;12.59;100.00
65800;BME280;52544;48.116;11.660;2022-10-16T05:46:29;95744.03;;;12.57;100.00
65800;BME280;52544;48.116;11.660;2022-10-16T05:48:55;95748.22;;;12.60;100.00
65800;BME280;52544;48.116;11.660;2022-10-16T05:51:20;95753.28;;;12.63;100.00
65800;BME280;52544;48.116;11.660;2022-10-16T05:53:45;95754.94;;;12.64;100.00
65800;BME280;52544;48.116;11.660;2022-10-16T05:56:11;95757.34;;;12.67;100.00
65800;BME280;52544;48.116;11.660;2022-10-16T05:58:38;95759.41;;;12.63;100.00
65800;BME280;52544;48.116;11.660;2022-10-16T06:01:14;95759.97;;;12.67;100.00
65800;BME280;52544;48.116;11.660;2022-10-16T06:03:40;95763.88;;;12.72;100.00
65800;BME280;52544;48.116;11.660;2022-10-16T06:06:15;95764.47;;;12.66;100.00
65800;BME280;52544;48.116;11.660;2022-10-16T06:08:41;95774.78;;;12.69;100.00
65800;BME280;52544;48.116;11.660;2022-10-16T06:11:10;95777.16;;;12.72;100.00
65800;BME280;52544;48.116;11.660;2022-10-16T06:13:36;95776.63;;;12.79;100.00
65800;BME280;52544;48.116;11.660;2022-10-16T06:16:03;95768.78;;;12.77;100.00
65800;BME280;52544;48.116;11.660;2022-10-16T06:18:29;95769.63;;;12.77;100.00
65800;BME280;52544;48.116;11.660;2022-10-16T06:20:55;95782.63;;;12.81;100.00
65800;BME280;52544;48.116;11.660;2022-10-16T06:23:21;95781.50;;;12.83;100.00
65800;BME280;52544;48.116;11.660;2022-10-16T06:25:47;95772.56;;;12.84;100.00
65800;BME280;52544;48.116;11.660;2022-10-16T06:28:16;95772.28;;;12.87;100.00
65800;BME280;52544;48.116;11.660;2022-10-16T06:30:41;95775.47;;;12.91;100.00
65800;BME280;52544;48.116;11.660;2022-10-16T06:33:10;95776.19;;;12.93;100.00
65800;BME280;52544;48.116;11.660;2022-10-16T06:35:35;95789.03;;;12.97;100.00
65800;BME280;52544;48.116;11.660;2022-10-16T06:38:01;95791.00;;;13.05;100.00
65800;BME280;52544;48.116;11.660;2022-10-16T06:40:26;95799.66;;;13.07;100.00
65800;BME280;52544;48.116;11.660;2022-10-16T06:42:54;95800.94;;;13.13;100.00
65800;BME280;52544;48.116;11.660;2022-10-16T06:45:20;95799.78;;;13.15;100.00
65800;BME280;52544;48.116;11.660;2022-10-16T06:47:45;95806.50;;;13.19;100.00
65800;BME280;52544;48.116;11.660;2022-10-16T06:50:10;95806.50;;;13.19;100.00
65800;BME280;52544;48.116;11.660;2022-10-16T06:52:36;95804.28;;;13.24;100.00
65800;BME280;52544;48.116;11.660;2022-10-16T06:55:02;95812.69;;;13.30;100.00
65800;BME280;52544;48.116;11.660;2022-10-16T06:57:28;95821.19;;;13.33;100.00
65800;BME280;52544;48.116;11.660;2022-10-16T06:59:54;95813.09;;;13.35;100.00
65800;BME280;52544;48.116;11.660;2022-10-16T07:02:19;95818.13;;;13.38;100.00
65800;BME280;52544;48.116;11.660;2022-10-16T07:04:44;95810.56;;;13.43;100.00
65800;BME280;52544;48.116;11.660;2022-10-16T07:07:10;95823.56;;;13.46;100.00
65800;BME280;52544;48.116;11.660;2022-10-16T07:09:35;95826.94;;;13.48;100.00
65800;BME280;52544;48.116;11.660;2022-10-16T07:12:01;95830.16;;;13.52;100.00
65800;BME280;52544;48.116;11.660;2022-10-16T07:14:26;95837.69;;;13.56;100.00
65800;BME280;52544;48.116;11.660;2022-10-16T07:16:52;95839.09;;;13.60;100.00
65800;BME280;52544;48.116;11.660;2022-10-16T07:19:17;95835.16;;;13.64;100.00
65800;BME280;52544;48.116;11.660;2022-10-16T07:21:43;95840.72;;;13.71;100.00
65800;BME280;52544;48.116;11.660;2022-10-16T07:24:15;95843.78;;;13.86;100.00
65800;BME280;52544;48.116;11.660;2022-10-16T07:26:42;95846.78;;;14.10;100.00
65800;BME280;52544;48.116;11.660;2022-10-16T07:29:16;95842.56;;;14.35;100.00
65800;BME280;52544;48.116;11.660;2022-10-16T07:31:42;95840.94;;;14.62;100.00
65800;BME280;52544;48.116;11.660;2022-10-16T07:34:07;95845.22;;;14.90;100.00
65800;BME280;52544;48.116;11.660;2022-10-16T07:36:33;95847.28;;;15.14;100.00
65800;BME280;52544;48.116;11.660;2022-10-16T07:38:58;95852.31;;;15.35;98.43
65800;BME280;52544;48.116;11.660;2022-10-16T07:41:24;95851.00;;;15.39;97.66
65800;BME280;52544;48.116;11.660;2022-10-16T07:43:51;95857.44;;;15.55;99.11
65800;BME280;52544;48.116;11.660;2022-10-16T07:46:18;95861.75;;;15.65;99.64
65800;BME280;52544;48.116;11.660;2022-10-16T07:48:44;95862.41;;;15.85;96.78
65800;BME280;52544;48.116;11.660;2022-10-16T07:51:13;95864.31;;;16.01;94.67
65800;BME280;52544;48.116;11.660;2022-10-16T07:53:39;95867.44;;;16.22;94.17
65800;BME280;52544;48.116;11.660;2022-10-16T07:56:06;95866.06;;;16.44;92.77
65800;BME280;52544;48.116;11.660;2022-10-16T07:58:32;95868.63;;;16.62;91.35
65800;BME280;52544;48.116;11.660;2022-10-16T08:00:59;95872.41;;;16.86;90.37
65800;BME280;52544;48.116;11.660;2022-10-16T08:03:27;95875.94;;;16.94;87.78
65800;BME280;52544;48.116;11.660;2022-10-16T08:05:52;95876.94;;;16.93;86.32
65800;BME280;52544;48.116;11.660;2022-10-16T08:08:18;95881.78;;;16.90;87.23
65800;BME280;52544;48.116;11.660;2022-10-16T08:10:44;95877.63;;;16.95;89.41
65800;BME280;52544;48.116;11.660;2022-10-16T08:13:10;95883.97;;;17.03;86.87
65800;BME280;52544;48.116;11.660;2022-10-16T08:15:36;95881.50;;;17.17;86.56
65800;BME280;52544;48.116;11.660;2022-10-16T08:18:03;95873.84;;;17.39;87.34
65800;BME280;52544;48.116;11.660;2022-10-16T08:20:30;95880.06;;;17.56;84.06
65800;BME280;52544;48.116;11.660;2022-10-16T08:22:55;95884.44;;;17.81;83.53
65800;BME280;52544;48.116;11.660;2022-10-16T08:25:22;95873.53;;;17.99;83.62
65800;BME280;52544;48.116;11.660;2022-10-16T08:27:48;95877.31;;;18.21;80.66
65800;BME280;52544;48.116;11.660;2022-10-16T08:30:13;95881.63;;;18.38;81.05
65800;BME280;52544;48.116;11.660;2022-10-16T08:32:39;95882.41;;;18.55;79.28
65800;BME280;52544;48.116;11.660;2022-10-16T08:35:06;95884.06;;;18.72;79.69
65800;BME280;52544;48.116;11.660;2022-10-16T08:37:32;95886.50;;;18.90;76.47
65800;BME280;52544;48.116;11.660;2022-10-16T08:39:58;95888.22;;;19.14;74.53
65800;BME280;52544;48.116;11.660;2022-10-16T08:50:39;95895.00;;;19.79;69.02
65800;BME280;52544;48.116;11.660;2022-10-16T08:53:05;95892.16;;;19.95;68.47
65800;BME280;52544;48.116;11.660;2022-10-16T08:55:41;95893.88;;;20.11;68.23
65800;BME280;52544;48.116;11.660;2022-10-16T08:58:30;95904.75;;;20.18;67.55
65800;BME280;52544;48.116;11.660;2022-10-16T09:00:58;95897.88;;;20.30;66.92
65800;BME280;52544;48.116;11.660;2022-10-16T09:09:16;95911.72;;;21.01;65.48
65800;BME280;52544;48.116;11.660;2022-10-16T09:11:45;95915.81;;;21.12;63.72
65800;BME280;52544;48.116;11.660;2022-10-16T09:17:22;95920.31;;;21.41;63.14
65800;BME280;52544;48.116;11.660;2022-10-16T09:19:56;95917.19;;;21.59;65.02
65800;BME280;52544;48.116;11.660;2022-10-16T09:22:27;95916.63;;;21.85;64.03
65800;BME280;52544;48.116;11.660;2022-10-16T09:24:57;95914.03;;;21.98;58.96
65800;BME280;52544;48.116;11.660;2022-10-16T09:27:24;95912.38;;;22.18;59.30
65800;BME280;52544;48.116;11.660;2022-10-16T09:29:51;95908.50;;;22.28;58.43
65800;BME280;52544;48.116;11.660;2022-10-16T09:32:19;95903.88;;;22.50;58.92
65800;BME280;52544;48.116;11.660;2022-10-16T09:34:53;95909.34;;;22.56;57.17
65800;BME280;52544;48.116;11.660;2022-10-16T09:37:23;95906.66;;;22.63;55.42
65800;BME280;52544;48.116;11.660;2022-10-16T09:39:52;95917.19;;;22.86;56.90
65800;BME280;52544;48.116;11.660;2022-10-16T09:42:20;95915.41;;;23.00;56.66
65800;BME280;52544;48.116;11.660;2022-10-16T09:44:49;95917.13;;;23.14;56.18
65800;BME280;52544;48.116;11.660;2022-10-16T09:47:21;95915.09;;;23.23;53.62
65800;BME280;52544;48.116;11.660;2022-10-16T09:49:56;95915.13;;;23.36;52.91
65800;BME280;52544;48.116;11.660;2022-10-16T09:52:24;95919.56;;;23.50;53.84
65800;BME280;52544;48.116;11.660;2022-10-16T09:54:54;95915.84;;;23.64;50.87
65800;BME280;52544;48.116;11.660;2022-10-16T09:57:20;95919.00;;;23.68;49.23
65800;BME280;52544;48.116;11.660;2022-10-16T09:59:57;95928.31;;;23.59;49.51
65800;BME280;52544;48.116;11.660;2022-10-16T10:02:36;95921.03;;;23.59;48.93
65800;BME280;52544;48.116;11.660;2022-10-16T10:05:06;95922.16;;;23.85;49.47
65800;BME280;52544;48.116;11.660;2022-10-16T10:07:43;95931.50;;;23.95;47.83
65800;BME280;52544;48.116;11.660;2022-10-16T10:10:27;95928.00;;;24.08;47.67
65800;BME280;52544;48.116;11.660;2022-10-16T10:12:54;95928.22;;;24.33;47.43
65800;BME280;52544;48.116;11.660;2022-10-16T10:15:21;95938.66;;;24.56;47.16
65800;BME280;52544;48.116;11.660;2022-10-16T10:17:51;95929.47;;;24.77;48.39
65800;BME280;52544;48.116;11.660;2022-10-16T10:20:30;95920.63;;;25.02;46.04
65800;BME280;52544;48.116;11.660;2022-10-16T10:22:58;95926.47;;;25.12;44.07
65800;BME280;52544;48.116;11.660;2022-10-16T10:25:48;95920.53;;;25.35;44.78
65800;BME280;52544;48.116;11.660;2022-10-16T10:28:40;95911.78;;;25.39;44.78
65800;BME280;52544;48.116;11.660;2022-10-16T10:31:21;95919.41;;;25.56;46.47
65800;BME280;52544;48.116;11.660;2022-10-16T10:38:58;95922.69;;;25.64;42.17
65800;BME280;52544;48.116;11.660;2022-10-16T10:52:34;95913.28;;;26.05;41.56
65800;BME280;52544;48.116;11.660;2022-10-16T11:01:14;95916.31;;;26.22;40.72
65800;BME280;52544;48.116;11.660;2022-10-16T11:03:52;95916.34;;;26.15;40.83
65800;BME280;52544;48.116;11.660;2022-10-16T11:06:29;95914.84;;;26.20;40.04
65800;BME280;52544;48.116;11.660;2022-10-16T11:09:00;95911.38;;;26.12;39.04
65800;BME280;52544;48.116;11.660;2022-10-16T11:11:34;95909.69;;;26.11;39.23
65800;BME280;52544;48.116;11.660;2022-10-16T11:14:14;95917.22;;;26.09;40.15
65800;BME280;52544;48.116;11.660;2022-10-16T11:19:35;95911.59;;;25.79;40.79
65800;BME280;52544;48.116;11.660;2022-10-16T11:27:19;95909.38;;;25.56;40.36
65800;BME280;52544;48.116;11.660;2022-10-16T11:29:53;95915.88;;;25.49;39.88
65800;BME280;52544;48.116;11.660;2022-10-16T11:32:25;95918.34;;;25.05;41.12
65800;BME280;52544;48.116;11.660;2022-10-16T11:34:57;95907.34;;;24.93;40.69
65800;BME280;52544;48.116;11.660;2022-10-16T11:37:32;95913.78;;;24.92;41.25
65800;BME280;52544;48.116;11.660;2022-10-16T11:40:25;95903.63;;;24.81;41.20
65800;BME280;52544;48.116;11.660;2022-10-16T11:43:02;95914.88;;;24.78;41.39
65800;BME280;52544;48.116;11.660;2022-10-16T11:45:37;95910.28;;;24.79;40.35
65800;BME280;52544;48.116;11.660;2022-10-16T11:48:17;95913.22;;;24.71;38.17
65800;BME280;52544;48.116;11.660;2022-10-16T11:50:50;95919.91;;;24.68;38.74
65800;BME280;52544;48.116;11.660;2022-10-16T11:53:34;95905.31;;;24.62;39.70
65800;BME280;52544;48.116;11.660;2022-10-16T11:56:03;95904.50;;;24.68;40.01
65800;BME280;52544;48.116;11.660;2022-10-16T11:58:34;95898.03;;;24.69;40.44
65800;BME280;52544;48.116;11.660;2022-10-16T12:01:25;95902.44;;;24.64;40.68
65800;BME280;52544;48.116;11.660;2022-10-16T12:04:11;95900.97;;;24.61;40.74
65800;BME280;52544;48.116;11.660;2022-10-16T12:09:21;95901.94;;;24.80;39.41
65800;BME280;52544;48.116;11.660;2022-10-16T12:11:47;95902.13;;;24.92;40.11
65800;BME280;52544;48.116;11.660;2022-10-16T12:16:57;95901.41;;;25.23;37.63
65800;BME280;52544;48.116;11.660;2022-10-16T12:19:26;95902.28;;;25.17;37.62
65800;BME280;52544;48.116;11.660;2022-10-16T12:21:55;95904.00;;;25.11;38.41
65800;BME280;52544;48.116;11.660;2022-10-16T12:24:32;95896.06;;;25.16;37.82
65800;BME280;52544;48.116;11.660;2022-10-16T12:26:58;95907.31;;;25.00;37.31
65800;BME280;52544;48.116;11.660;2022-10-16T12:29:39;95899.41;;;25.12;37.82
65800;BME280;52544;48.116;11.660;2022-10-16T12:32:29;95901.50;;;24.97;38.28
65800;BME280;52544;48.116;11.660;2022-10-16T12:34:55;95904.59;;;25.00;38.92
65800;BME280;52544;48.116;11.660;2022-10-16T12:37:24;95899.75;;;25.29;37.88
65800;BME280;52544;48.116;11.660;2022-10-16T12:39:53;95899.34;;;25.25;38.28
65800;BME280;52544;48.116;11.660;2022-10-16T12:44:54;95896.97;;;25.42;38.22
65800;BME280;52544;48.116;11.660;2022-10-16T12:49:58;95909.38;;;25.56;36.65
65800;BME280;52544;48.116;11.660;2022-10-16T12:52:36;95902.50;;;25.60;37.33
65800;BME280;52544;48.116;11.660;2022-10-16T12:55:03;95906.69;;;25.56;37.71
65800;BME280;52544;48.116;11.660;2022-10-16T13:06:07;95897.38;;;25.84;37.82
65800;BME280;52544;48.116;11.660;2022-10-16T13:08:44;95888.19;;;25.85;37.11
65800;BME280;52544;48.116;11.660;2022-10-16T13:17:30;95897.34;;;26.15;36.26
65800;BME280;52544;48.116;11.660;2022-10-16T13:20:18;95896.69;;;26.20;35.57
65800;BME280;52544;48.116;11.660;2022-10-16T13:28:03;95902.53;;;26.42;34.62
65800;BME280;52544;48.116;11.660;2022-10-16T13:30:35;95900.13;;;26.59;34.24
65800;BME280;52544;48.116;11.660;2022-10-16T13:35:48;95905.81;;;26.76;34.39
65800;BME280;52544;48.116;11.660;2022-10-16T13:38:25;95908.09;;;26.97;35.25
65800;BME280;52544;48.116;11.660;2022-10-16T13:41:00;95904.47;;;26.85;35.28
65800;BME280;52544;48.116;11.660;2022-10-16T13:43:35;95908.63;;;26.87;35.05
65800;BME280;52544;48.116;11.660;2022-10-16T13:46:10;95904.94;;;26.82;36.34
65800;BME280;52544;48.116;11.660;2022-10-16T13:48:37;95908.09;;;26.97;36.01
65800;BME280;52544;48.116;11.660;2022-10-16T13:51:06;95909.47;;;27.06;35.81
65800;BME280;52544;48.116;11.660;2022-10-16T13:53:34;95908.72;;;26.81;36.62
65800;BME280;52544;48.116;11.660;2022-10-16T13:56:02;95903.19;;;27.06;36.18
65800;BME280;52544;48.116;11.660;2022-10-16T13:58:28;95906.31;;;27.09;36.27
65800;BME280;52544;48.116;11.660;2022-10-16T14:01:00;95909.78;;;26.98;37.48
65800;BME280;52544;48.116;11.660;2022-10-16T14:03:27;95911.63;;;26.79;38.10
65800;BME280;52544;48.116;11.660;2022-10-16T14:05:55;95906.72;;;26.70;38.46
65800;BME280;52544;48.116;11.660;2022-10-16T14:08:23;95915.19;;;26.55;36.41
65800;BME280;52544;48.116;11.660;2022-10-16T14:10:51;95920.69;;;26.48;38.70
65800;BME280;52544;48.116;11.660;2022-10-16T14:13:20;95913.34;;;26.24;37.74
65800;BME280;52544;48.116;11.660;2022-10-16T14:15:49;95918.66;;;26.37;35.54
65800;BME280;52544;48.116;11.660;2022-10-16T14:18:22;95915.88;;;26.25;35.14
65800;BME280;52544;48.116;11.660;2022-10-16T14:20:48;95926.50;;;25.95;35.07
65800;BME280;52544;48.116;11.660;2022-10-16T14:23:30;95921.19;;;25.75;35.96
65800;BME280;52544;48.116;11.660;2022-10-16T14:28:35;95919.38;;;25.04;38.95